Time;durP1;ratioP1;P1;durP2;ratioP2;P2;SDS_P1;SDS_P2;PMS_P1;PMS_P2;Temp;Humidity;BMP_temperature;BMP_pressure;BME280_temperature;BME280_humidity;BME280_pressure;Samples;Min_cycle;Max_cycle;Signal;HPM_P1;HPM_P2
2022/06/10 00:01:39;;;;;;;3.88;1.70;;;14.70;95.60;;;;;;6154912;23;20496;-90
2022/06/10 00:04:35;;;;;;;4.90;2.25;;;14.70;95.60;;;;;;6134004;23;20064;-89
2022/06/10 00:07:34;;;;;;;5.60;2.72;;;14.70;95.70;;;;;;6159968;23;20308;-88
2022/06/10 00:10:08;;;;;;;5.43;2.33;;;14.70;95.70;;;;;;6136508;23;20005;-89
2022/06/10 00:13:27;;;;;;;;;;;;;;;;;;;;;
2022/06/10 00:16:04;;;;;;;5.75;1.88;;;14.60;95.80;;;;;;6186353;23;20507;-89
2022/06/10 00:18:46;;;;;;;5.22;1.73;;;14.60;95.80;;;;;;6160432;23;20007;-89
2022/06/10 00:22:01;;;;;;;4.18;1.80;;;14.50;95.90;;;;;;6138109;23;20008;-89
2022/06/10 00:24:08;;;;;;;5.75;2.22;;;14.50;95.90;;;;;;6195168;23;20020;-89
2022/06/10 00:26:49;;;;;;;;;;;;;;;;;;;;;
2022/06/10 00:29:34;;;;;;;6.55;2.22;;;14.50;96.00;;;;;;6242780;22;20009;-90
2022/06/10 00:32:21;;;;;;;4.43;2.08;;;14.50;96.10;;;;;;6218312;22;20008;-90
2022/06/10 00:35:16;;;;;;;2.80;1.77;;;14.50;96.30;;;;;;6242848;22;20012;-89
2022/06/10 00:38:05;;;;;;;6.00;2.35;;;14.40;96.10;;;;;;6201548;23;20009;-89
2022/06/10 00:41:03;;;;;;;4.50;2.10;;;14.40;96.10;;;;;;6217471;23;20312;-89
2022/06/10 00:44:08;;;;;;;;;;;;;;;;;;;;;
2022/06/10 00:46:36;;;;;;;3.85;1.92;;;14.40;96.20;;;;;;6218728;23;20076;-89
2022/06/10 00:49:15;;;;;;;;;;;;;;;;;;;;;
2022/06/10 00:52:22;;;;;;;;;;;;;;;;;;;;;
2022/06/10 00:55:07;;;;;;;;;;;;;;;;;;;;;
2022/06/10 00:58:18;;;;;;;5.13;2.55;;;14.30;96.30;;;;;;6217761;23;20076;-89
2022/06/10 01:01:14;;;;;;;;;;;;;;;;;;;;;
2022/06/10 01:03:58;;;;;;;4.07;1.83;;;14.20;96.20;;;;;;6217169;23;20083;-89
2022/06/10 01:06:32;;;;;;;4.43;2.42;;;14.10;96.30;;;;;;6216096;23;20004;-89
2022/06/10 01:09:14;;;;;;;6.15;2.25;;;14.10;96.30;;;;;;6216611;23;20083;-90
2022/06/10 01:12:05;;;;;;;4.95;2.50;;;14.10;96.30;;;;;;6192326;23;20095;-90
2022/06/10 01:14:55;;;;;;;;;;;14.10;96.40;;;;;;6217709;23;20060;-91
2022/06/10 01:18:08;;;;;;;;;;;;;;;;;;;;;
2022/06/10 01:21:06;;;;;;;4.75;2.15;;;14.10;96.40;;;;;;6178906;23;20079;-89
2022/06/10 01:24:22;;;;;;;;;;;;;;;;;;;;;
2022/06/10 01:30:26;;;;;;;5.78;2.58;;;14.00;96.50;;;;;;6217492;23;20016;-89
2022/06/10 01:33:31;;;;;;;;;;;;;;;;;;;;;
2022/06/10 01:36:30;;;;;;;4.57;2.17;;;13.90;96.50;;;;;;6217797;23;20506;-90
2022/06/10 01:39:34;;;;;;;4.05;1.92;;;13.90;96.60;;;;;;6216090;23;20008;-90
2022/06/10 01:49:01;;;;;;;;;;;;;;;;;;;;;
2022/06/10 01:52:14;;;;;;;7.07;2.42;;;13.80;96.70;;;;;;6217038;23;20071;-90
2022/06/10 01:54:47;;;;;;;;;;;13.80;96.80;;;;;;6217561;23;20038;-90
2022/06/10 01:57:27;;;;;;;6.90;2.95;;;13.80;96.80;;;;;;6216443;23;19904;-91
2022/06/10 02:00:20;;;;;;;;;;;;;;;;;;;;;
2022/06/10 02:03:34;;;;;;;;;;;;;;;;;;;;;
2022/06/10 02:06:39;;;;;;;;;;;;;;;;;;;;;
2022/06/10 02:09:46;;;;;;;;;;;;;;;;;;;;;
2022/06/10 02:13:07;;;;;;;6.32;2.78;;;13.80;96.90;;;;;;6221473;23;20478;-90
2022/06/10 02:16:12;;;;;;;6.53;2.60;;;13.80;96.90;;;;;;6138142;22;20033;-91
2022/06/10 02:19:23;;;;;;;;;;;;;;;;;;;;;
2022/06/10 02:22:37;;;;;;;;;;;;;;;;;;;;;
2022/06/10 02:25:32;;;;;;;4.95;2.30;;;13.80;96.90;;;;;;6204357;23;20083;-90
2022/06/10 02:31:35;;;;;;;7.05;2.75;;;13.80;96.90;;;;;;6195165;23;20102;-89
2022/06/10 02:34:26;;;;;;;7.00;3.17;;;13.80;97.00;;;;;;6190325;23;20024;-89
2022/06/10 02:37:11;;;;;;;5.20;2.50;;;13.80;97.00;;;;;;6215703;23;20000;-89
2022/06/10 02:39:44;;;;;;;7.22;2.88;;;13.80;97.10;;;;;;6190147;23;20004;-89
2022/06/10 02:42:45;;;;;;;;;;;;;;;;;;;;;
2022/06/10 02:45:21;;;;;;;6.45;3.10;;;13.90;97.10;;;;;;6211718;23;20013;-89
2022/06/10 02:48:38;;;;;;;;;;;;;;;;;;;;;
2022/06/10 02:54:43;;;;;;;;;;;;;;;;;;;;;
2022/06/10 03:03:24;;;;;;;;;;;;;;;;;;;;;
2022/06/10 03:06:44;;;;;;;;;;;;;;;;;;;;;
2022/06/10 03:09:34;;;;;;;5.72;2.67;;;14.40;96.80;;;;;;6216725;23;20068;-90
2022/06/10 03:12:42;;;;;;;6.53;2.63;;;14.50;96.80;;;;;;6188673;23;20092;-89
2022/06/10 03:15:49;;;;;;;;;;;;;;;;;;;;;
2022/06/10 03:19:31;;;;;;;;;;;;;;;;;;;;;
2022/06/10 03:22:30;;;;;;;6.03;2.17;;;14.80;96.80;;;;;;6208783;23;20059;-89
2022/06/10 03:25:17;;;;;;;6.53;2.20;;;14.80;96.70;;;;;;6214883;23;20020;-89
2022/06/10 03:28:30;;;;;;;;;;;;;;;;;;;;;
2022/06/10 03:37:51;;;;;;;5.90;2.60;;;15.10;96.70;;;;;;6178220;23;20005;-90
2022/06/10 03:40:38;;;;;;;6.45;2.30;;;15.10;96.60;;;;;;6190502;23;19997;-89
2022/06/10 03:43:38;;;;;;;;;;;;;;;;;;;;;
2022/06/10 03:46:35;;;;;;;6.57;2.22;;;15.20;96.70;;;;;;6216603;23;20079;-89
2022/06/10 03:49:31;;;;;;;5.05;2.20;;;15.20;96.60;;;;;;6191249;23;20000;-90
2022/06/10 03:52:42;;;;;;;;;;;;;;;;;;;;;
2022/06/10 03:55:33;;;;;;;5.60;2.42;;;15.30;96.60;;;;;;6204405;23;20076;-89
2022/06/10 03:58:25;;;;;;;6.13;1.90;;;15.30;96.60;;;;;;6166713;23;20446;-89
2022/06/10 04:04:25;;;;;;;4.78;2.38;;;15.40;96.60;;;;;;6200205;23;20013;-90
2022/06/10 04:10:35;;;;;;;5.22;2.05;;;15.50;96.50;;;;;;6206174;23;20005;-89
2022/06/10 04:16:34;;;;;;;;;;;;;;;;;;;;;
2022/06/10 04:19:44;;;;;;;8.98;2.20;;;15.60;96.50;;;;;;6195749;23;20084;-89
2022/06/10 04:23:02;;;;;;;;;;;;;;;;;;;;;
2022/06/10 04:26:04;;;;;;;;;;;;;;;;;;;;;
2022/06/10 04:28:44;;;;;;;4.35;2.22;;;15.60;96.80;;;;;;6191182;23;20084;-89
2022/06/10 04:31:43;;;;;;;;;;;;;;;;;;;;;
2022/06/10 04:34:21;;;;;;;6.68;2.70;;;15.60;97.30;;;;;;6218283;23;20522;-90
2022/06/10 04:37:48;;;;;;;10.43;2.78;;;15.70;97.10;;;;;;6191498;23;20024;-89
2022/06/10 04:44:06;;;;;;;5.72;1.70;;;15.70;97.30;;;;;;6200660;23;20390;-90
2022/06/10 04:49:46;;;;;;;7.30;2.45;;;15.70;97.50;;;;;;6194666;23;20004;-89
2022/06/10 04:53:54;;;;;;;;;;;;;;;;;;;;;
2022/06/10 05:00:26;;;;;;;;;;;;;;;;;;;;;
2022/06/10 05:06:49;;;;;;;;;;;;;;;;;;;;;
2022/06/10 05:09:42;;;;;;;;;;;;;;;;;;;;;
2022/06/10 05:19:52;;;;;;;;;;;;;;;;;;;;;
2022/06/10 05:28:58;;;;;;;6.63;2.50;;;16.00;99.00;;;;;;6205137;23;20354;-90
2022/06/10 05:31:49;;;;;;;5.63;2.15;;;16.00;98.90;;;;;;6172698;23;20097;-90
2022/06/10 05:34:55;;;;;;;7.40;3.00;;;16.00;99.00;;;;;;6191318;23;20138;-93
2022/06/10 05:38:14;;;;;;;;;;;;;;;;;;;;;
2022/06/10 05:40:42;;;;;;;7.45;3.00;;;16.20;99.10;;;;;;6216685;23;20096;-89
2022/06/10 05:43:33;;;;;;;5.20;2.42;;;16.20;99.10;;;;;;6189773;23;20016;-89
2022/06/10 05:46:29;;;;;;;;;;;;;;;;;;;;;
2022/06/10 05:49:02;;;;;;;14.27;3.60;;;16.30;99.20;;;;;;6228472;23;20020;-89
2022/06/10 05:52:06;;;;;;;5.32;2.35;;;16.40;99.20;;;;;;6193040;22;20005;-87
2022/06/10 07:44:30;;;;;;;;;;;;;;;;;;;;;
2022/06/10 09:30:06;;;;;;;3.50;1.38;;;20.70;94.40;;;;;;5672544;24;20056;-86
2022/06/10 09:33:24;;;;;;;5.45;1.45;;;20.70;94.20;;;;;;4867860;29;20565;-86
2022/06/10 09:36:26;;;;;;;4.65;1.42;;;20.80;94.10;;;;;;4885982;29;20035;-88
2022/06/10 09:52:53;;;;;;;4.00;1.23;;;21.20;93.30;;;;;;4914464;29;20037;-90
2022/06/10 09:55:49;;;;;;;3.47;1.70;;;21.30;93.20;;;;;;4868191;29;20040;-87
2022/06/10 09:59:04;;;;;;;;;;;;;;;;;;;;;
2022/06/10 10:04:56;;;;;;;7.30;1.42;;;21.40;92.90;;;;;;4885801;29;20534;-88
2022/06/10 10:08:29;;;;;;;4.80;2.00;;;21.40;93.00;;;;;;4882141;29;20127;-88
2022/06/10 10:11:32;;;;;;;;;;;;;;;;;;;;;
2022/06/10 10:14:52;;;;;;;7.18;2.30;;;21.60;92.90;;;;;;4899061;29;20043;-87
2022/06/10 10:21:49;;;;;;;;;;;;;;;;;;;;;
2022/06/10 10:25:11;;;;;;;;;;;;;;;;;;;;;
2022/06/10 10:28:06;;;;;;;7.80;1.77;;;21.80;92.70;;;;;;4894606;29;20055;-88
2022/06/10 10:31:37;;;;;;;5.40;1.23;;;21.90;92.60;;;;;;4877723;29;20058;-92
2022/06/10 10:34:36;;;;;;;;;;;;;;;;;;;;;
2022/06/10 10:37:53;;;;;;;;;;;;;;;;;;;;;
2022/06/10 10:41:02;;;;;;;6.03;1.85;;;22.20;92.40;;;;;;4880643;29;20474;-88
2022/06/10 11:05:08;;;;;;;;;;;;;;;;;;;;;
2022/06/10 11:12:10;;;;;;;6.22;2.17;;;22.60;91.20;;;;;;4702815;30;20040;-88
2022/06/10 11:18:47;;;;;;;;;;;;;;;;;;;;;
2022/06/10 11:21:55;;;;;;;;;;;;;;;;;;;;;
2022/06/10 11:24:55;;;;;;;;;;;;;;;;;;;;;
2022/06/10 11:38:18;;;;;;;8.23;2.53;;;22.50;90.80;;;;;;4894992;29;20117;-90
2022/06/10 11:41:09;;;;;;;4.68;1.73;;;22.40;90.90;;;;;;4901431;29;20032;-88
2022/06/10 11:44:09;;;;;;;;;;;;;;;;;;;;;
2022/06/10 11:47:28;;;;;;;;;;;;;;;;;;;;;
2022/06/10 11:51:04;;;;;;;;;;;;;;;;;;;;;
2022/06/10 12:03:48;;;;;;;;;;;;;;;;;;;;;
2022/06/10 12:07:02;;;;;;;3.97;1.73;;;22.30;91.00;;;;;;4901451;29;20032;-87
2022/06/10 12:09:36;;;;;;;5.25;1.95;;;22.40;91.00;;;;;;4828421;29;20505;-87
2022/06/10 12:12:30;;;;;;;5.63;1.65;;;22.40;91.00;;;;;;4827405;29;20042;-87
2022/06/10 12:15:43;;;;;;;;;;;;;;;;;;;;;
2022/06/10 12:18:45;;;;;;;;;;;;;;;;;;;;;
2022/06/10 12:25:26;;;;;;;;;;;;;;;;;;;;;
2022/06/10 12:32:04;;;;;;;;;;;;;;;;;;;;;
2022/06/10 12:35:10;;;;;;;7.28;2.20;;;22.60;91.00;;;;;;4894913;29;20040;-88
2022/06/10 12:42:14;;;;;;;6.85;2.38;;;22.60;90.80;;;;;;4852612;29;20033;-88
2022/06/10 12:48:03;;;;;;;;;;;;;;;;;;;;;
2022/06/10 12:54:27;;;;;;;;;;;;;;;;;;;;;
2022/06/10 12:56:49;;;;;;;;;;;22.90;91.00;;;;;;4876719;29;20041;-90
2022/06/10 13:00:08;;;;;;;4.10;2.22;;;23.00;90.90;;;;;;4865692;29;19964;-88
2022/06/10 13:03:02;;;;;;;;;;;;;;;;;;;;;
2022/06/10 13:09:09;;;;;;;4.38;2.33;;;23.10;90.80;;;;;;4890082;29;20033;-87
2022/06/10 13:15:42;;;;;;;;;;;;;;;;;;;;;
2022/06/10 13:18:47;;;;;;;;;;;;;;;;;;;;;
2022/06/10 13:21:41;;;;;;;4.65;2.22;;;23.30;90.10;;;;;;4900217;29;20033;-89
2022/06/10 13:28:41;;;;;;;5.72;1.92;;;23.50;90.00;;;;;;4891016;29;20043;-89
2022/06/10 13:32:15;;;;;;;6.10;2.60;;;23.50;89.80;;;;;;4868464;29;20048;-89
2022/06/10 13:35:34;;;;;;;;;;;;;;;;;;;;;
2022/06/10 13:38:56;;;;;;;5.72;2.30;;;23.60;89.50;;;;;;4879477;29;20056;-88
2022/06/10 13:42:06;;;;;;;3.40;1.98;;;23.60;89.30;;;;;;4876829;29;20124;-87
2022/06/10 13:44:58;;;;;;;;;;;;;;;;;;;;;
2022/06/10 13:47:38;;;;;;;4.88;2.35;;;23.60;89.00;;;;;;4899058;29;20031;-87
2022/06/10 13:54:21;;;;;;;4.22;2.22;;;23.60;88.30;;;;;;4870123;29;20030;-87
2022/06/10 13:56:59;;;;;;;8.35;4.80;;;23.60;88.80;;;;;;4864203;29;20048;-87
2022/06/10 14:03:27;;;;;;;;;;;;;;;;;;;;;
2022/06/10 14:23:26;;;;;;;6.13;2.45;;;23.40;89.70;;;;;;4869127;29;20037;-89
2022/06/10 14:26:27;;;;;;;5.50;2.45;;;23.50;89.60;;;;;;4873756;29;20041;-86
2022/06/10 14:29:46;;;;;;;;;;;;;;;;;;;;;
2022/06/10 14:36:13;;;;;;;;;;;;;;;;;;;;;
2022/06/10 14:43:58;;;;;;;;;;;;;;;;;;;;;
2022/06/10 14:46:58;;;;;;;;;;;;;;;;;;;;;
2022/06/10 14:50:13;;;;;;;;;;;;;;;;;;;;;
2022/06/10 14:54:00;;;;;;;3.35;1.73;;;23.10;90.10;;;;;;4786304;30;20519;-88
2022/06/10 14:56:32;;;;;;;3.60;2.00;;;23.00;90.20;;;;;;4762987;29;20190;-83
2022/06/10 14:59:11;;;;;;;5.80;2.40;;;22.90;90.30;;;;;;4807251;29;20065;-83
2022/06/10 15:01:37;;;;;;;5.95;2.38;;;22.80;90.30;;;;;;4840976;29;20111;-83
2022/06/10 15:04:03;;;;;;;4.00;2.30;;;22.80;90.30;;;;;;4882187;29;20421;-84
2022/06/10 15:06:36;;;;;;;5.38;2.50;;;22.80;90.30;;;;;;4881984;29;20025;-83
2022/06/10 15:09:12;;;;;;;4.10;2.35;;;22.70;90.40;;;;;;4902882;29;20465;-84
2022/06/10 15:11:38;;;;;;;3.85;2.33;;;22.70;90.60;;;;;;4884483;29;20017;-83
2022/06/10 15:14:04;;;;;;;6.20;2.10;;;22.70;90.60;;;;;;4885894;29;20035;-83
2022/06/10 15:16:31;;;;;;;4.25;2.03;;;22.70;90.70;;;;;;4886075;29;20044;-83
2022/06/10 15:18:56;;;;;;;3.70;2.10;;;22.70;90.80;;;;;;4902985;29;20028;-86
2022/06/10 15:22:04;;;;;;;4.63;2.35;;;22.70;90.90;;;;;;4866235;29;20488;-89
2022/06/10 15:24:33;;;;;;;6.18;2.20;;;22.80;90.80;;;;;;4890456;29;20031;-91
2022/06/10 15:27:43;;;;;;;4.88;2.50;;;22.80;90.80;;;;;;4883638;29;20033;-89
2022/06/10 15:31:03;;;;;;;;;;;;;;;;;;;;;
2022/06/10 15:33:32;;;;;;;3.78;2.05;;;22.80;90.80;;;;;;4872328;29;20063;-87
2022/06/10 15:41:43;;;;;;;5.13;2.38;;;22.90;90.70;;;;;;4901986;29;20120;-86
2022/06/10 15:44:28;;;;;;;6.22;2.47;;;23.00;90.60;;;;;;4884601;29;20454;-85
2022/06/10 15:46:57;;;;;;;9.10;5.45;;;23.00;90.60;;;;;;4900548;29;20024;-86
2022/06/10 15:49:24;;;;;;;7.68;5.30;;;22.90;90.50;;;;;;4884474;29;20032;-83
2022/06/10 15:52:07;;;;;;;6.75;3.83;;;23.00;90.60;;;;;;4884859;29;20027;-83
2022/06/10 15:57:06;;;;;;;4.75;2.72;;;23.00;90.50;;;;;;4885170;29;20417;-85
2022/06/10 15:57:25;;;;;;;6.00;2.78;;;23.00;90.50;;;;;;4898800;29;20519;-83
2022/06/10 15:59:55;;;;;;;5.40;2.20;;;23.00;90.50;;;;;;4903850;29;20037;-83
2022/06/10 16:02:24;;;;;;;5.13;2.45;;;23.00;90.50;;;;;;4900108;29;20009;-85
2022/06/10 16:04:50;;;;;;;4.50;2.40;;;23.00;90.60;;;;;;4908372;29;20009;-84
2022/06/10 16:07:18;;;;;;;6.53;2.20;;;23.00;90.50;;;;;;4907541;29;20016;-85
2022/06/10 16:09:44;;;;;;;4.50;2.10;;;23.00;90.50;;;;;;4907889;29;20032;-83
2022/06/10 16:15:22;;;;;;;5.30;2.25;;;22.90;90.60;;;;;;4849566;29;20458;-84
2022/06/10 16:17:50;;;;;;;5.53;2.47;;;22.90;90.70;;;;;;4842837;29;20034;-84
2022/06/10 16:20:18;;;;;;;4.60;2.22;;;22.90;90.70;;;;;;4872977;29;20040;-83
2022/06/10 16:22:45;;;;;;;4.07;2.47;;;22.90;90.80;;;;;;4883946;29;20116;-84
2022/06/10 16:25:15;;;;;;;4.82;2.13;;;22.90;90.90;;;;;;4900638;29;20029;-84
2022/06/10 16:27:45;;;;;;;6.10;2.72;;;22.90;90.90;;;;;;4883125;29;20033;-84
2022/06/10 16:30:16;;;;;;;5.00;1.98;;;22.90;90.90;;;;;;4868836;29;20146;-85
2022/06/10 16:32:42;;;;;;;4.55;2.33;;;22.90;90.90;;;;;;4900992;29;20045;-84
2022/06/10 16:35:28;;;;;;;7.00;2.20;;;22.90;90.90;;;;;;4883703;29;20025;-85
2022/06/10 16:37:57;;;;;;;4.97;1.90;;;22.90;90.70;;;;;;4882787;29;20121;-85
2022/06/10 16:40:25;;;;;;;5.15;1.90;;;22.90;90.70;;;;;;4882583;29;20043;-84
2022/06/10 16:42:53;;;;;;;4.30;2.15;;;22.90;90.80;;;;;;4883682;29;20033;-84
2022/06/10 16:45:35;;;;;;;3.15;1.50;;;22.90;90.90;;;;;;4883378;29;20025;-85
2022/06/10 16:48:03;;;;;;;3.85;1.85;;;22.90;91.10;;;;;;4883671;29;20033;-85
2022/06/10 16:50:29;;;;;;;7.80;3.78;;;22.80;91.20;;;;;;4882373;29;20043;-84
2022/06/10 16:52:55;;;;;;;9.05;6.80;;;22.80;91.20;;;;;;4883406;29;20020;-84
2022/06/10 16:55:21;;;;;;;7.95;4.68;;;22.80;91.30;;;;;;4867754;29;20036;-84
2022/06/10 16:57:51;;;;;;;6.90;3.47;;;22.70;91.30;;;;;;4883051;29;20119;-84
2022/06/10 17:00:30;;;;;;;5.32;2.45;;;22.70;91.30;;;;;;4899355;29;20061;-86
2022/06/10 17:02:59;;;;;;;6.63;2.40;;;22.70;91.40;;;;;;4883308;29;20028;-84
2022/06/10 17:05:32;;;;;;;5.60;2.30;;;22.60;91.60;;;;;;4883301;29;20127;-85
2022/06/10 17:07:59;;;;;;;3.70;2.03;;;22.60;91.70;;;;;;4903864;29;20116;-85
2022/06/10 17:10:27;;;;;;;4.70;2.28;;;22.60;91.80;;;;;;4885043;29;20077;-84
2022/06/10 17:13:04;;;;;;;4.28;1.75;;;22.60;91.90;;;;;;4884935;29;20047;-83
2022/06/10 17:15:36;;;;;;;4.78;2.17;;;22.50;92.00;;;;;;4901201;29;20036;-84
2022/06/10 17:18:11;;;;;;;4.57;2.00;;;22.50;92.10;;;;;;4885556;29;20107;-83
2022/06/10 17:20:39;;;;;;;6.15;2.13;;;22.40;92.10;;;;;;4901299;29;20039;-84
2022/06/10 17:23:07;;;;;;;3.85;1.95;;;22.40;92.10;;;;;;4901886;29;20024;-84
2022/06/10 17:25:38;;;;;;;3.08;1.63;;;22.30;92.00;;;;;;4885067;29;20032;-84
2022/06/10 17:28:07;;;;;;;7.78;2.17;;;22.30;92.00;;;;;;4885347;29;20020;-83
2022/06/10 17:30:39;;;;;;;6.00;2.13;;;22.20;91.90;;;;;;4884052;29;20528;-82
2022/06/10 17:33:27;;;;;;;2.67;1.58;;;22.20;91.90;;;;;;4884693;29;20059;-83
2022/06/10 17:35:56;;;;;;;7.60;2.08;;;22.20;91.90;;;;;;4901756;29;20092;-82
2022/06/10 17:38:35;;;;;;;4.82;1.92;;;22.20;91.90;;;;;;4884418;29;20017;-84
2022/06/10 17:41:06;;;;;;;5.45;1.90;;;22.20;92.00;;;;;;4884023;29;20040;-84
2022/06/10 17:43:44;;;;;;;3.80;1.90;;;22.10;91.90;;;;;;4885441;29;20025;-85
2022/06/10 17:46:28;;;;;;;4.90;1.85;;;22.10;91.90;;;;;;4884459;29;20044;-86
2022/06/10 17:48:54;;;;;;;4.90;2.40;;;22.10;92.00;;;;;;4882992;29;20037;-84
2022/06/10 17:51:30;;;;;;;5.38;2.60;;;22.10;92.10;;;;;;4867383;29;20043;-84
2022/06/10 17:53:57;;;;;;;5.00;2.30;;;22.10;92.20;;;;;;4867394;29;20108;-85
2022/06/10 17:56:25;;;;;;;3.63;1.88;;;22.10;92.40;;;;;;4892240;29;20058;-84
2022/06/10 17:59:01;;;;;;;5.43;2.20;;;22.10;92.50;;;;;;4901559;29;20067;-87
2022/06/10 18:01:29;;;;;;;5.95;2.42;;;22.00;92.60;;;;;;4870217;29;20036;-84
2022/06/10 18:03:57;;;;;;;6.00;2.40;;;22.00;92.70;;;;;;4870687;29;20088;-86
2022/06/10 18:06:30;;;;;;;6.43;2.50;;;22.00;92.70;;;;;;4885777;29;20038;-87
2022/06/10 18:08:59;;;;;;;5.70;2.60;;;22.00;92.70;;;;;;4897720;29;20041;-86
2022/06/10 18:11:27;;;;;;;5.07;2.58;;;22.00;92.80;;;;;;4890120;29;20020;-87
2022/06/10 18:16:50;;;;;;;4.80;2.30;;;22.00;92.80;;;;;;4908887;29;20039;-84
2022/06/10 18:19:48;;;;;;;6.68;2.55;;;22.00;92.80;;;;;;4890450;29;20063;-81
2022/06/10 18:22:16;;;;;;;3.30;2.17;;;22.00;92.90;;;;;;4885421;29;20049;-82
2022/06/10 18:24:42;;;;;;;5.18;2.20;;;22.10;93.00;;;;;;4901273;29;20028;-84
2022/06/10 18:27:41;;;;;;;5.03;2.50;;;22.00;93.20;;;;;;4868901;29;20029;-84
2022/06/10 18:30:15;;;;;;;5.25;2.05;;;22.00;93.30;;;;;;4861702;29;20568;-83
2022/06/10 18:32:42;;;;;;;4.03;2.33;;;21.90;93.30;;;;;;4883376;29;20059;-85
2022/06/10 18:35:33;;;;;;;6.47;2.88;;;21.90;93.40;;;;;;4900369;29;20574;-83
2022/06/10 18:38:00;;;;;;;6.25;3.03;;;21.90;93.50;;;;;;4883176;29;20123;-83
2022/06/10 18:40:30;;;;;;;4.70;3.10;;;21.90;93.60;;;;;;4866870;29;20052;-83
2022/06/10 18:42:59;;;;;;;5.25;2.72;;;21.80;93.60;;;;;;4883749;29;20405;-84
2022/06/10 18:45:32;;;;;;;5.72;2.53;;;21.80;93.60;;;;;;4868274;29;20025;-84
2022/06/10 18:48:16;;;;;;;3.50;2.55;;;21.80;93.60;;;;;;4868185;29;20092;-83
2022/06/10 18:50:42;;;;;;;4.47;2.53;;;21.80;93.70;;;;;;4882587;29;20382;-83
2022/06/10 18:53:14;;;;;;;5.00;2.65;;;21.80;93.70;;;;;;4883088;29;20068;-83
2022/06/10 18:55:41;;;;;;;7.03;3.17;;;21.80;93.80;;;;;;4882712;29;20469;-83
2022/06/10 18:58:08;;;;;;;5.03;2.88;;;21.80;93.70;;;;;;4882401;29;20397;-84
2022/06/10 19:00:38;;;;;;;6.55;3.35;;;21.70;94.00;;;;;;4882054;29;20028;-84
2022/06/10 19:03:15;;;;;;;6.35;3.10;;;21.70;93.70;;;;;;4882028;29;20043;-83
2022/06/10 19:05:41;;;;;;;5.93;3.45;;;21.70;93.60;;;;;;4882376;29;20390;-85
2022/06/10 19:08:12;;;;;;;7.60;3.40;;;21.70;93.60;;;;;;4882940;29;20036;-83
2022/06/10 19:10:38;;;;;;;;;;;21.70;93.60;;;;;;4880924;29;20103;-83
2022/06/10 19:13:05;;;;;;;5.70;3.15;;;21.60;93.60;;;;;;4882486;29;19943;-85
2022/06/10 19:15:36;;;;;;;6.40;2.83;;;21.60;93.70;;;;;;4882437;29;20029;-85
2022/06/10 19:18:03;;;;;;;4.97;2.50;;;21.60;93.80;;;;;;4899173;29;20104;-83
2022/06/10 19:20:37;;;;;;;5.05;2.78;;;21.60;93.80;;;;;;4882968;29;20081;-84
2022/06/10 19:23:06;;;;;;;4.13;2.58;;;21.50;93.90;;;;;;4874157;29;20032;-82
2022/06/10 19:25:40;;;;;;;4.60;2.50;;;21.50;93.90;;;;;;4882433;29;20029;-82
2022/06/10 19:28:12;;;;;;;4.15;2.53;;;21.50;94.00;;;;;;4883188;29;20084;-83
2022/06/10 19:30:39;;;;;;;5.65;2.97;;;21.50;94.00;;;;;;4882850;29;20457;-82
2022/06/10 19:33:07;;;;;;;6.05;3.00;;;21.50;94.00;;;;;;4863140;29;20083;-83
2022/06/10 19:35:39;;;;;;;4.72;2.40;;;21.50;94.00;;;;;;4898412;29;20143;-83
2022/06/10 19:38:12;;;;;;;4.35;2.50;;;21.40;94.10;;;;;;4882658;29;20024;-83
2022/06/10 19:40:41;;;;;;;6.40;3.22;;;21.40;94.20;;;;;;4899774;29;20036;-84
2022/06/10 19:43:14;;;;;;;5.10;2.72;;;21.40;94.20;;;;;;4881930;29;20032;-84
2022/06/10 19:45:46;;;;;;;5.80;2.83;;;21.40;94.30;;;;;;4882446;29;20033;-84
2022/06/10 19:48:23;;;;;;;6.45;2.78;;;21.30;94.30;;;;;;4900110;29;20032;-84
2022/06/10 19:50:58;;;;;;;5.97;2.92;;;21.30;94.40;;;;;;4883766;29;20138;-84
2022/06/10 19:53:27;;;;;;;4.38;2.75;;;21.30;94.40;;;;;;4885029;29;20064;-83
2022/06/10 19:56:00;;;;;;;6.63;3.03;;;21.30;94.40;;;;;;4887003;29;20029;-84
2022/06/10 19:58:29;;;;;;;5.90;4.05;;;21.30;94.50;;;;;;4903927;29;20104;-85
2022/06/10 20:00:57;;;;;;;9.88;6.53;;;21.20;94.50;;;;;;4887029;29;20032;-83
2022/06/10 20:03:30;;;;;;;8.93;5.65;;;21.20;94.60;;;;;;4886064;29;20401;-84
2022/06/10 20:05:57;;;;;;;8.68;4.82;;;21.20;94.60;;;;;;4887689;29;20044;-84
2022/06/10 20:08:32;;;;;;;5.88;3.65;;;21.10;94.70;;;;;;4886240;29;20063;-83
2022/06/10 20:10:59;;;;;;;6.60;3.38;;;21.10;94.80;;;;;;4888224;29;20059;-84
2022/06/10 20:13:29;;;;;;;5.03;3.13;;;21.10;94.90;;;;;;4899314;29;20013;-85
2022/06/10 20:16:12;;;;;;;4.35;3.22;;;21.00;94.90;;;;;;4907918;29;20063;-85
2022/06/10 20:18:40;;;;;;;6.15;3.05;;;21.10;95.10;;;;;;4908396;29;20047;-88
2022/06/10 20:21:12;;;;;;;4.70;3.10;;;21.00;95.10;;;;;;4907525;29;20025;-84
2022/06/10 20:23:41;;;;;;;6.65;3.47;;;21.00;95.20;;;;;;4907547;29;20040;-85
2022/06/10 20:26:12;;;;;;;3.92;2.67;;;21.00;95.20;;;;;;4895196;29;20181;-85
2022/06/10 20:28:49;;;;;;;5.65;2.70;;;20.90;95.20;;;;;;4887424;29;20037;-85
2022/06/10 20:31:19;;;;;;;6.03;3.42;;;20.90;95.30;;;;;;4886033;29;20496;-85
2022/06/10 20:33:45;;;;;;;5.40;2.85;;;20.80;95.30;;;;;;4885406;29;20144;-85
2022/06/10 20:36:16;;;;;;;4.65;2.67;;;20.80;95.40;;;;;;4886668;29;20461;-84
2022/06/10 20:38:42;;;;;;;5.43;3.03;;;20.70;95.40;;;;;;4886637;29;20029;-82
2022/06/10 20:41:13;;;;;;;5.30;2.97;;;20.80;95.50;;;;;;4902486;29;20077;-84
2022/06/10 20:43:41;;;;;;;6.87;3.20;;;20.70;95.60;;;;;;4884568;29;20033;-85
2022/06/10 20:46:33;;;;;;;6.30;3.03;;;20.70;95.60;;;;;;4884016;29;20349;-84
